Nearby METAR Reports


Data Updates Approximately Every Four Hours

METAR is the international standard code format for hourly surface weather observations which is analogous to the SA coding currently used in the US. The acronym roughly translates from French as Aviation Routine Weather Report. SPECI is merely the code name given to METAR formatted products which are issued on a special non-routine basis as dictated by changing meteorological conditions. The SPECI acronym roughly translates as Aviation Selected Special Weather Report.

KSLH - Cheboygan, Michigan, USA
Distance from station: W 9mi, 14km
Updated: 04/22/2018 10:15am
Clear
Clear
 Wind from calm
Wind: Calm
Temperature: 50°F , 10°C
Dew Point: 23°F , -5°C
Humidity: 35%
Barometer: 30.43 inHg , 1030.5 hPa
Clouds: Clear
Visibility: 10 miles , 16 km
2018/04/22 14:15 KSLH 221415Z AUTO 00000KT 10SM CLR 10/M05 A3043 RMK AO2 T01011055
KMCD - Mackinac Island, Michigan, USA
Distance from station: NW 19mi, 31km
Updated: 04/22/2018 10:15am
Clear
Clear
 Wind from calm
Wind: Calm
Temperature: 46°F , 8°C
Dew Point: 21°F , -6°C
Humidity: 37%
Barometer: 30.44 inHg , 1030.8 hPa
Clouds: Clear
Visibility: 10 miles , 16 km
2018/04/22 14:15 KMCD 221415Z AUTO 00000KT 10SM CLR 08/M06 A3044 RMK AO2 T00751061
 
KPLN - Pellston, Michigan, USA
Distance from station: WSW 24mi, 38km
Updated: 04/22/2018 9:54am
Clear
Clear
 Wind from calm
Wind: Calm
Temperature: 45°F , 7°C
Dew Point: 21°F , -6°C
Humidity: 39%
Barometer: 30.44 inHg , 1030.8 hPa
Clouds: Clear
Visibility: 10 miles , 16 km
2018/04/22 13:54 KPLN 221354Z AUTO 00000KT 10SM CLR 07/M06 A3044 RMK AO2 SLP317 T00721061
KPZQ - Rogers City, Michigan, USA
Distance from station: SE 31mi, 50km
Updated: 04/22/2018 10:15am
Clear
Clear
 Wind from ESE
Wind: ESE 3 mph , 6 km/h
Temperature: 50°F , 10°C
Dew Point: 19°F , -7°C
Humidity: 30%
Barometer: 30.45 inHg , 1031.2 hPa
Clouds: Clear
Visibility: 10 miles , 16 km
2018/04/22 14:15 KPZQ 221415Z AUTO 11003KT 10SM CLR 10/M07 A3045 RMK AO2 T00951068
 
KMGN - Harbor Springs, Michigan, USA
Distance from station: WSW 32mi, 52km
Updated: 04/22/2018 10:15am
Clear
Clear
 Wind from ENE
Wind: ENE 7 mph , 11 km/h
Temperature: 50°F , 10°C
Wind Chill: 47°F , 8°C
Dew Point: 18°F , -8°C
Humidity: 28%
Barometer: 30.44 inHg , 1030.8 hPa
Clouds: Clear
Visibility: 10 miles , 16 km
2018/04/22 14:15 KMGN 221415Z AUTO 07006KT 10SM CLR 10/M08 A3044 RMK AO2 T00991085
KDRM - Drummond Is, Michigan, USA
Distance from station: NE 36mi, 59km
Updated: 04/22/2018 10:16am
Clear
Clear
 Wind from calm
Wind: Calm
Temperature: 48°F , 9°C
Dew Point: 21°F , -6°C
Humidity: 34%
Barometer: 30.44 inHg , 1030.8 hPa
Clouds: Clear
Visibility: 10 miles , 16 km
2018/04/22 14:16 KDRM 221416Z AUTO 00000KT 10SM CLR 09/M06 A3044 RMK AO2 T00851060
 
KCIU - Chippewa Intl, Michigan, USA
Distance from station: N 41mi, 66km
Updated: 04/22/2018 9:56am
Clear
Clear
 Wind from calm
Wind: Calm
Temperature: 45°F , 7°C
Dew Point: 25°F , -4°C
Humidity: 46%
Barometer: 30.44 inHg , 1030.8 hPa
Clouds: Clear
Visibility: 10 miles , 16 km
2018/04/22 13:56 KCIU 221356Z AUTO 00000KT 10SM CLR 07/M04 A3044 RMK AO2 SLP340 T00671044
KGLR - Gaylord, Michigan, USA
Distance from station: SSW 48mi, 77km
Updated: 04/22/2018 9:53am
Clear
Clear
 Wind from calm
Wind: Calm
Temperature: 48°F , 9°C
Dew Point: 21°F , -6°C
Humidity: 34%
Barometer: 30.42 inHg , 1030.1 hPa
Clouds: Clear
Visibility: 10 miles , 16 km
2018/04/22 13:53 KGLR 221353Z AUTO 00000KT 10SM CLR 09/M06 A3042 RMK AO2 SLP311 T00891056
 
KCVX - Charlevoix, Michigan, USA
Distance from station: WSW 52mi, 83km
Updated: 04/22/2018 10:15am
Clear
Clear
 Wind from ESE
Wind: ESE 5 mph , 7 km/h
Temperature: 46°F , 8°C
Wind Chill: 44°F , 7°C
Dew Point: 21°F , -6°C
Humidity: 37%
Barometer: 30.46 inHg , 1031.5 hPa
Clouds: Clear
Visibility: 10 miles , 16 km
2018/04/22 14:15 KCVX 221415Z AUTO 11004KT 10SM CLR 08/M06 A3046 RMK AO2 T00751064
KANJ - Sault Ste Marie, Michigan, USA
Distance from station: N 56mi, 89km
Updated: 04/22/2018 9:55am
Clear
Clear
 Wind from calm
Wind: Calm
Temperature: 45°F , 7°C
Dew Point: 23°F , -5°C
Humidity: 42%
Barometer: 30.43 inHg , 1030.5 hPa
Clouds: Clear
Visibility: 10 miles , 16 km
2018/04/22 13:55 KANJ 221355Z AUTO 00000KT 10SM CLR 07/M05 A3043 RMK AO2 SLP310 T00671050
 
KAPN - Alpena, Michigan, USA
Distance from station: SE 56mi, 89km
Updated: 04/22/2018 9:54am
Clear
Clear
 Wind from calm
Wind: Calm
Temperature: 45°F , 7°C
Dew Point: 28°F , -2°C
Humidity: 53%
Barometer: 30.45 inHg , 1031.2 hPa
Clouds: Clear
Visibility: 10 miles , 16 km
2018/04/22 13:54 KAPN 221354Z AUTO 00000KT 10SM CLR 07/M02 A3045 RMK AO2 SLP320 T00671022
CYAM - Sault Ste Marie, Ontario, Canada
Distance from station: N 56mi, 90km
Updated: 04/22/2018 10:00am
Clear
Clear
 Wind from ENE
Wind: ENE 6 mph , 9 km/h
Temperature: 39°F , 4°C
Wind Chill: 35°F , 2°C
Dew Point: 25°F , -4°C
Humidity: 56%
Barometer: 30.44 inHg , 1030.8 hPa
Clouds: Clear
Visibility: 15 miles , 24 km
2018/04/22 14:00 CYAM 221400Z 07005KT 15SM SKC 04/M04 A3044 RMK SLP318
 
KSJX - Beaver Island, Michigan, USA
Distance from station: W 60mi, 96km
Updated: 04/22/2018 10:17am
Clear
Clear
 Wind from E
Wind: E 6 mph , 9 km/h
Temperature: 52°F , 11°C
Dew Point: 23°F , -5°C
Humidity: 32%
Barometer: 30.43 inHg , 1030.5 hPa
Clouds: Clear
Visibility: 10 miles , 16 km
2018/04/22 14:17 KSJX 221417Z AUTO 09005KT 10SM CLR 11/M05 A3043 RMK AO2 T01061048
KACB - Bellaire, Michigan, USA
Distance from station: SW 63mi, 102km
Updated: 04/22/2018 10:15am
Clear
Clear
 Wind from calm
Wind: Calm
Temperature: 46°F , 8°C
Dew Point: 23°F , -5°C
Humidity: 40%
Barometer: 30.44 inHg , 1030.8 hPa
Clouds: Clear
Visibility: 10 miles , 16 km
2018/04/22 14:15 KACB 221415Z AUTO 00000KT 10SM CLR 08/M05 A3044 RMK AO2 T00771049
 
CWNL - Great Duck Island, Ontario, Canada
Distance from station: E 66mi, 106km
Updated: 04/22/2018 9:00am
NOT Current

 Wind from calm
Wind: Calm
Temperature: 41°F , 5°C
Dew Point: 28°F , -2°C
Humidity: 61%
2018/04/22 13:00 CWNL 221300Z AUTO 00000KT 05/M02 RMK AO1 SLP316 T00521020 52010
KERY - Newberry, Michigan, USA
Distance from station: NW 69mi, 112km
Updated: 04/22/2018 10:15am
Clear
Clear
 Wind from SSW
Wind: SSW 3 mph , 6 km/h
Temperature: 45°F , 7°C
Dew Point: 21°F , -6°C
Humidity: 39%
Barometer: 30.42 inHg , 1030.1 hPa
Clouds: Clear
Visibility: 10 miles , 16 km
2018/04/22 14:15 KERY 221415Z AUTO 21003KT 10SM CLR 07/M06 A3042 RMK AO2 T00721060
 
KGOV - Grayling Af, Michigan, USA
Distance from station: SSW 70mi, 113km
Updated: 04/22/2018 9:58am
Clear
Clear
 Wind from calm
Wind: Calm
Temperature: 41°F , 5°C
Dew Point: 23°F , -5°C
Humidity: 49%
Barometer: 30.42 inHg , 1030.1 hPa
Clouds: Clear
Visibility: 10 miles , 16 km
2018/04/22 13:58 KGOV 221358Z AUTO 00000KT 10SM CLR 05/M05 A3042 RMK AO2 SLP318 T00541049 $